Terminal Aerodrome Forecast
Issued by NWS

Home | Current Version | Previous Version | Text Only | Print | Product List | Glossary On
Versions: 1 2 3 4 5 6 7 8 9 10 11 12 13 14 15 16 17 18 19
000
FTUS46 KMFR 232344
TAFRBG
TAF
KRBG 232344Z 2400/2424 18008KT P6SM VCSH BKN050 OVC070
     FM240300 18008KT P6SM -RA FEW025 BKN040 OVC060 WS020/17035KT
     FM240900 17003KT 5SM -RA BR BKN020 BKN035 OVC050
     FM241500 17004KT P6SM -SHRA BKN025 OVC035
     FM242000 19008KT P6SM -SHRA SCT025 OVC040=

USA.gov is the U.S. government's official web portal to all federal, state and local government web resources and services.